sensor_id;sensor_type;location;lat;lon;timestamp;P1;P2;P0
63305;PMS5003;50735;52.060;1.248;2023-11-21T00:00:59;11;11;
63305;PMS5003;50735;52.060;1.248;2023-11-21T00:03:30;16;12;
63305;PMS5003;50735;52.060;1.248;2023-11-21T00:06:03;13;12;
63305;PMS5003;50735;52.060;1.248;2023-11-21T00:08:35;12;11;
63305;PMS5003;50735;52.060;1.248;2023-11-21T00:11:07;10;10;
63305;PMS5003;50735;52.060;1.248;2023-11-21T00:13:38;9;9;
63305;PMS5003;50735;52.060;1.248;2023-11-21T00:16:10;8;8;
63305;PMS5003;50735;52.060;1.248;2023-11-21T00:18:42;9;9;
63305;PMS5003;50735;52.060;1.248;2023-11-21T00:21:14;9;9;
63305;PMS5003;50735;52.060;1.248;2023-11-21T00:23:45;8;7;
63305;PMS5003;50735;52.060;1.248;2023-11-21T00:26:17;9;9;
63305;PMS5003;50735;52.060;1.248;2023-11-21T00:28:48;8;8;
63305;PMS5003;50735;52.060;1.248;2023-11-21T00:31:21;7;6;
63305;PMS5003;50735;52.060;1.248;2023-11-21T00:33:52;6;6;
63305;PMS5003;50735;52.060;1.248;2023-11-21T00:36:24;8;6;
63305;PMS5003;50735;52.060;1.248;2023-11-21T00:38:56;7;5;
63305;PMS5003;50735;52.060;1.248;2023-11-21T00:41:28;5;5;
63305;PMS5003;50735;52.060;1.248;2023-11-21T00:44:00;7;5;
63305;PMS5003;50735;52.060;1.248;2023-11-21T00:46:32;5;4;
63305;PMS5003;50735;52.060;1.248;2023-11-21T00:49:03;4;4;
63305;PMS5003;50735;52.060;1.248;2023-11-21T00:51:35;5;3;
63305;PMS5003;50735;52.060;1.248;2023-11-21T00:54:07;4;4;
63305;PMS5003;50735;52.060;1.248;2023-11-21T00:56:39;2;2;
63305;PMS5003;50735;52.060;1.248;2023-11-21T00:59:11;4;4;
63305;PMS5003;50735;52.060;1.248;2023-11-21T01:01:42;2;2;
63305;PMS5003;50735;52.060;1.248;2023-11-21T01:04:14;4;3;
63305;PMS5003;50735;52.060;1.248;2023-11-21T01:06:46;4;4;
63305;PMS5003;50735;52.060;1.248;2023-11-21T01:09:18;5;3;
63305;PMS5003;50735;52.060;1.248;2023-11-21T01:11:50;4;4;
63305;PMS5003;50735;52.060;1.248;2023-11-21T01:14:21;4;4;
63305;PMS5003;50735;52.060;1.248;2023-11-21T01:16:53;3;3;
63305;PMS5003;50735;52.060;1.248;2023-11-21T01:19:25;6;4;
63305;PMS5003;50735;52.060;1.248;2023-11-21T01:21:57;3;3;
63305;PMS5003;50735;52.060;1.248;2023-11-21T01:24:29;2;2;
63305;PMS5003;50735;52.060;1.248;2023-11-21T01:27:00;1;1;
63305;PMS5003;50735;52.060;1.248;2023-11-21T01:29:32;2;2;
63305;PMS5003;50735;52.060;1.248;2023-11-21T01:32:04;2;2;
63305;PMS5003;50735;52.060;1.248;2023-11-21T01:34:37;3;2;
63305;PMS5003;50735;52.060;1.248;2023-11-21T01:37:09;3;3;
63305;PMS5003;50735;52.060;1.248;2023-11-21T01:39:40;2;2;
63305;PMS5003;50735;52.060;1.248;2023-11-21T01:42:12;3;2;
63305;PMS5003;50735;52.060;1.248;2023-11-21T01:44:44;2;2;
63305;PMS5003;50735;52.060;1.248;2023-11-21T01:47:16;2;2;
63305;PMS5003;50735;52.060;1.248;2023-11-21T01:49:49;1;1;
63305;PMS5003;50735;52.060;1.248;2023-11-21T01:52:20;2;2;
63305;PMS5003;50735;52.060;1.248;2023-11-21T01:54:53;2;2;
63305;PMS5003;50735;52.060;1.248;2023-11-21T01:57:25;5;2;
63305;PMS5003;50735;52.060;1.248;2023-11-21T01:59:57;3;3;
63305;PMS5003;50735;52.060;1.248;2023-11-21T02:02:32;3;3;
63305;PMS5003;50735;52.060;1.248;2023-11-21T02:05:04;2;2;
63305;PMS5003;50735;52.060;1.248;2023-11-21T02:07:35;3;2;
63305;PMS5003;50735;52.060;1.248;2023-11-21T02:10:07;1;1;
63305;PMS5003;50735;52.060;1.248;2023-11-21T02:12:40;3;2;
63305;PMS5003;50735;52.060;1.248;2023-11-21T02:15:13;0;0;
63305;PMS5003;50735;52.060;1.248;2023-11-21T02:17:45;1;1;
63305;PMS5003;50735;52.060;1.248;2023-11-21T02:20:17;0;0;
63305;PMS5003;50735;52.060;1.248;2023-11-21T02:22:50;2;2;
63305;PMS5003;50735;52.060;1.248;2023-11-21T02:25:23;1;1;
63305;PMS5003;50735;52.060;1.248;2023-11-21T02:27:56;2;0;
63305;PMS5003;50735;52.060;1.248;2023-11-21T02:30:29;1;1;
63305;PMS5003;50735;52.060;1.248;2023-11-21T02:33:02;1;1;
63305;PMS5003;50735;52.060;1.248;2023-11-21T02:35:33;1;1;
63305;PMS5003;50735;52.060;1.248;2023-11-21T02:38:05;2;2;
63305;PMS5003;50735;52.060;1.248;2023-11-21T02:40:37;1;1;
63305;PMS5003;50735;52.060;1.248;2023-11-21T02:43:09;1;1;
63305;PMS5003;50735;52.060;1.248;2023-11-21T02:45:41;0;0;
63305;PMS5003;50735;52.060;1.248;2023-11-21T02:48:12;2;1;
63305;PMS5003;50735;52.060;1.248;2023-11-21T02:50:44;4;1;
63305;PMS5003;50735;52.060;1.248;2023-11-21T02:53:16;1;1;
63305;PMS5003;50735;52.060;1.248;2023-11-21T02:55:48;2;1;
63305;PMS5003;50735;52.060;1.248;2023-11-21T02:58:20;0;0;
63305;PMS5003;50735;52.060;1.248;2023-11-21T03:00:52;0;0;
63305;PMS5003;50735;52.060;1.248;2023-11-21T03:03:23;2;2;
63305;PMS5003;50735;52.060;1.248;2023-11-21T03:05:55;2;2;
63305;PMS5003;50735;52.060;1.248;2023-11-21T03:08:27;2;2;
63305;PMS5003;50735;52.060;1.248;2023-11-21T03:10:59;1;1;
63305;PMS5003;50735;52.060;1.248;2023-11-21T03:13:31;1;1;
63305;PMS5003;50735;52.060;1.248;2023-11-21T03:16:03;2;2;
63305;PMS5003;50735;52.060;1.248;2023-11-21T03:18:35;2;2;
63305;PMS5003;50735;52.060;1.248;2023-11-21T03:21:07;1;1;
63305;PMS5003;50735;52.060;1.248;2023-11-21T03:23:40;1;1;
63305;PMS5003;50735;52.060;1.248;2023-11-21T03:26:12;3;3;
63305;PMS5003;50735;52.060;1.248;2023-11-21T03:28:44;4;3;
63305;PMS5003;50735;52.060;1.248;2023-11-21T03:31:16;2;2;
63305;PMS5003;50735;52.060;1.248;2023-11-21T03:33:48;1;1;
63305;PMS5003;50735;52.060;1.248;2023-11-21T03:36:20;2;2;
63305;PMS5003;50735;52.060;1.248;2023-11-21T03:38:51;3;2;
63305;PMS5003;50735;52.060;1.248;2023-11-21T03:41:23;1;1;
63305;PMS5003;50735;52.060;1.248;2023-11-21T03:43:55;1;1;
63305;PMS5003;50735;52.060;1.248;2023-11-21T03:46:27;1;1;
63305;PMS5003;50735;52.060;1.248;2023-11-21T03:48:59;2;2;
63305;PMS5003;50735;52.060;1.248;2023-11-21T03:51:31;1;1;
63305;PMS5003;50735;52.060;1.248;2023-11-21T03:54:03;1;1;
63305;PMS5003;50735;52.060;1.248;2023-11-21T03:56:35;1;1;
63305;PMS5003;50735;52.060;1.248;2023-11-21T03:59:07;0;0;
63305;PMS5003;50735;52.060;1.248;2023-11-21T04:01:39;0;0;
63305;PMS5003;50735;52.060;1.248;2023-11-21T04:04:11;2;0;
63305;PMS5003;50735;52.060;1.248;2023-11-21T04:06:42;1;1;
63305;PMS5003;50735;52.060;1.248;2023-11-21T04:09:14;1;1;
63305;PMS5003;50735;52.060;1.248;2023-11-21T04:11:46;0;0;
63305;PMS5003;50735;52.060;1.248;2023-11-21T04:14:18;0;0;
63305;PMS5003;50735;52.060;1.248;2023-11-21T04:16:50;0;0;
63305;PMS5003;50735;52.060;1.248;2023-11-21T04:19:22;0;0;
63305;PMS5003;50735;52.060;1.248;2023-11-21T04:21:53;0;0;
63305;PMS5003;50735;52.060;1.248;2023-11-21T04:24:25;1;1;
63305;PMS5003;50735;52.060;1.248;2023-11-21T04:26:57;1;1;
63305;PMS5003;50735;52.060;1.248;2023-11-21T04:29:29;0;0;
63305;PMS5003;50735;52.060;1.248;2023-11-21T04:32:01;1;1;
63305;PMS5003;50735;52.060;1.248;2023-11-21T04:34:33;0;0;
63305;PMS5003;50735;52.060;1.248;2023-11-21T04:37:04;0;0;
63305;PMS5003;50735;52.060;1.248;2023-11-21T04:39:36;0;0;
63305;PMS5003;50735;52.060;1.248;2023-11-21T04:42:08;1;0;
63305;PMS5003;50735;52.060;1.248;2023-11-21T04:44:40;0;0;
63305;PMS5003;50735;52.060;1.248;2023-11-21T04:47:11;0;0;
63305;PMS5003;50735;52.060;1.248;2023-11-21T04:49:43;0;0;
63305;PMS5003;50735;52.060;1.248;2023-11-21T04:52:17;0;0;
63305;PMS5003;50735;52.060;1.248;2023-11-21T04:54:49;3;0;
63305;PMS5003;50735;52.060;1.248;2023-11-21T04:57:21;1;0;
63305;PMS5003;50735;52.060;1.248;2023-11-21T04:59:52;0;0;
63305;PMS5003;50735;52.060;1.248;2023-11-21T05:02:24;2;2;
63305;PMS5003;50735;52.060;1.248;2023-11-21T05:04:56;0;0;
63305;PMS5003;50735;52.060;1.248;2023-11-21T05:07:28;0;0;
63305;PMS5003;50735;52.060;1.248;2023-11-21T05:10:00;1;0;
63305;PMS5003;50735;52.060;1.248;2023-11-21T05:12:31;1;0;
63305;PMS5003;50735;52.060;1.248;2023-11-21T05:15:04;0;0;
63305;PMS5003;50735;52.060;1.248;2023-11-21T05:17:37;0;0;
63305;PMS5003;50735;52.060;1.248;2023-11-21T05:20:10;0;0;
63305;PMS5003;50735;52.060;1.248;2023-11-21T05:22:42;0;0;
63305;PMS5003;50735;52.060;1.248;2023-11-21T05:25:14;1;1;
63305;PMS5003;50735;52.060;1.248;2023-11-21T05:27:47;0;0;
63305;PMS5003;50735;52.060;1.248;2023-11-21T05:30:20;0;0;
63305;PMS5003;50735;52.060;1.248;2023-11-21T05:32:53;0;0;
63305;PMS5003;50735;52.060;1.248;2023-11-21T05:35:25;0;0;
63305;PMS5003;50735;52.060;1.248;2023-11-21T05:37:57;0;0;
63305;PMS5003;50735;52.060;1.248;2023-11-21T05:40:29;0;0;
63305;PMS5003;50735;52.060;1.248;2023-11-21T05:43:00;0;0;
63305;PMS5003;50735;52.060;1.248;2023-11-21T05:45:32;0;0;
63305;PMS5003;50735;52.060;1.248;2023-11-21T05:48:04;0;0;
63305;PMS5003;50735;52.060;1.248;2023-11-21T05:50:36;0;0;
63305;PMS5003;50735;52.060;1.248;2023-11-21T05:53:08;0;0;
63305;PMS5003;50735;52.060;1.248;2023-11-21T05:55:40;0;0;
63305;PMS5003;50735;52.060;1.248;2023-11-21T05:58:12;0;0;
63305;PMS5003;50735;52.060;1.248;2023-11-21T06:00:43;0;0;
63305;PMS5003;50735;52.060;1.248;2023-11-21T06:03:15;0;0;
63305;PMS5003;50735;52.060;1.248;2023-11-21T06:05:47;0;0;
63305;PMS5003;50735;52.060;1.248;2023-11-21T06:08:18;0;0;
63305;PMS5003;50735;52.060;1.248;2023-11-21T06:10:50;1;1;
63305;PMS5003;50735;52.060;1.248;2023-11-21T06:13:22;2;1;
63305;PMS5003;50735;52.060;1.248;2023-11-21T06:15:54;0;0;
63305;PMS5003;50735;52.060;1.248;2023-11-21T06:18:26;1;1;
63305;PMS5003;50735;52.060;1.248;2023-11-21T06:20:58;0;0;
63305;PMS5003;50735;52.060;1.248;2023-11-21T06:23:29;0;0;
63305;PMS5003;50735;52.060;1.248;2023-11-21T06:26:02;0;0;
63305;PMS5003;50735;52.060;1.248;2023-11-21T06:28:34;1;1;
63305;PMS5003;50735;52.060;1.248;2023-11-21T06:31:06;3;3;
63305;PMS5003;50735;52.060;1.248;2023-11-21T06:33:38;2;2;
63305;PMS5003;50735;52.060;1.248;2023-11-21T06:36:10;0;0;
63305;PMS5003;50735;52.060;1.248;2023-11-21T06:38:41;0;0;
63305;PMS5003;50735;52.060;1.248;2023-11-21T06:41:13;0;0;
63305;PMS5003;50735;52.060;1.248;2023-11-21T06:43:45;0;0;
63305;PMS5003;50735;52.060;1.248;2023-11-21T06:46:17;2;0;
63305;PMS5003;50735;52.060;1.248;2023-11-21T06:48:49;1;1;
63305;PMS5003;50735;52.060;1.248;2023-11-21T06:51:20;0;0;
63305;PMS5003;50735;52.060;1.248;2023-11-21T06:53:52;0;0;
63305;PMS5003;50735;52.060;1.248;2023-11-21T06:56:24;0;0;
63305;PMS5003;50735;52.060;1.248;2023-11-21T06:58:56;0;0;
63305;PMS5003;50735;52.060;1.248;2023-11-21T07:01:28;0;0;
63305;PMS5003;50735;52.060;1.248;2023-11-21T07:03:59;0;0;
63305;PMS5003;50735;52.060;1.248;2023-11-21T07:06:31;0;0;
63305;PMS5003;50735;52.060;1.248;2023-11-21T07:09:03;1;1;
63305;PMS5003;50735;52.060;1.248;2023-11-21T07:11:35;0;0;
63305;PMS5003;50735;52.060;1.248;2023-11-21T07:14:07;1;1;
63305;PMS5003;50735;52.060;1.248;2023-11-21T07:16:39;0;0;
63305;PMS5003;50735;52.060;1.248;2023-11-21T07:19:11;0;0;
63305;PMS5003;50735;52.060;1.248;2023-11-21T07:21:42;0;0;
63305;PMS5003;50735;52.060;1.248;2023-11-21T07:24:14;0;0;
63305;PMS5003;50735;52.060;1.248;2023-11-21T07:26:46;0;0;
63305;PMS5003;50735;52.060;1.248;2023-11-21T07:29:18;0;0;
63305;PMS5003;50735;52.060;1.248;2023-11-21T07:31:50;1;1;
63305;PMS5003;50735;52.060;1.248;2023-11-21T07:34:21;0;0;
63305;PMS5003;50735;52.060;1.248;2023-11-21T07:36:53;0;0;
63305;PMS5003;50735;52.060;1.248;2023-11-21T07:39:25;1;1;
63305;PMS5003;50735;52.060;1.248;2023-11-21T07:41:57;1;1;
63305;PMS5003;50735;52.060;1.248;2023-11-21T07:44:29;6;6;
63305;PMS5003;50735;52.060;1.248;2023-11-21T07:47:01;2;2;
63305;PMS5003;50735;52.060;1.248;2023-11-21T07:49:32;3;2;
63305;PMS5003;50735;52.060;1.248;2023-11-21T07:52:04;1;1;
63305;PMS5003;50735;52.060;1.248;2023-11-21T07:54:36;1;1;
63305;PMS5003;50735;52.060;1.248;2023-11-21T07:57:08;1;1;
63305;PMS5003;50735;52.060;1.248;2023-11-21T07:59:40;2;2;
63305;PMS5003;50735;52.060;1.248;2023-11-21T08:02:11;6;6;
63305;PMS5003;50735;52.060;1.248;2023-11-21T08:04:43;6;4;
63305;PMS5003;50735;52.060;1.248;2023-11-21T08:07:15;7;4;
63305;PMS5003;50735;52.060;1.248;2023-11-21T08:09:47;4;4;
63305;PMS5003;50735;52.060;1.248;2023-11-21T08:12:19;2;2;
63305;PMS5003;50735;52.060;1.248;2023-11-21T08:14:51;3;3;
63305;PMS5003;50735;52.060;1.248;2023-11-21T08:17:22;9;6;
63305;PMS5003;50735;52.060;1.248;2023-11-21T08:19:54;2;2;
63305;PMS5003;50735;52.060;1.248;2023-11-21T08:22:26;1;1;
63305;PMS5003;50735;52.060;1.248;2023-11-21T08:24:58;8;6;
63305;PMS5003;50735;52.060;1.248;2023-11-21T08:27:29;6;6;
63305;PMS5003;50735;52.060;1.248;2023-11-21T08:30:02;6;6;
63305;PMS5003;50735;52.060;1.248;2023-11-21T08:32:34;4;4;
63305;PMS5003;50735;52.060;1.248;2023-11-21T08:35:07;4;4;
63305;PMS5003;50735;52.060;1.248;2023-11-21T08:37:38;7;3;
63305;PMS5003;50735;52.060;1.248;2023-11-21T08:40:11;5;4;
63305;PMS5003;50735;52.060;1.248;2023-11-21T08:42:43;9;4;
63305;PMS5003;50735;52.060;1.248;2023-11-21T08:45:15;4;4;
63305;PMS5003;50735;52.060;1.248;2023-11-21T08:47:47;5;2;
63305;PMS5003;50735;52.060;1.248;2023-11-21T08:50:19;1;1;
63305;PMS5003;50735;52.060;1.248;2023-11-21T08:52:51;3;2;
63305;PMS5003;50735;52.060;1.248;2023-11-21T08:55:23;3;3;
63305;PMS5003;50735;52.060;1.248;2023-11-21T08:57:55;3;3;
63305;PMS5003;50735;52.060;1.248;2023-11-21T09:00:27;2;2;
63305;PMS5003;50735;52.060;1.248;2023-11-21T09:02:58;2;2;
63305;PMS5003;50735;52.060;1.248;2023-11-21T09:05:32;2;2;
63305;PMS5003;50735;52.060;1.248;2023-11-21T09:08:04;3;1;
63305;PMS5003;50735;52.060;1.248;2023-11-21T09:10:36;3;0;
63305;PMS5003;50735;52.060;1.248;2023-11-21T09:13:07;10;7;
63305;PMS5003;50735;52.060;1.248;2023-11-21T09:15:39;20;13;
63305;PMS5003;50735;52.060;1.248;2023-11-21T09:18:10;15;11;
63305;PMS5003;50735;52.060;1.248;2023-11-21T09:20:42;10;10;
63305;PMS5003;50735;52.060;1.248;2023-11-21T09:23:14;13;12;
63305;PMS5003;50735;52.060;1.248;2023-11-21T09:25:46;6;4;
63305;PMS5003;50735;52.060;1.248;2023-11-21T09:28:18;3;3;
63305;PMS5003;50735;52.060;1.248;2023-11-21T09:30:49;2;2;
63305;PMS5003;50735;52.060;1.248;2023-11-21T09:33:21;2;2;
63305;PMS5003;50735;52.060;1.248;2023-11-21T09:35:53;2;2;
63305;PMS5003;50735;52.060;1.248;2023-11-21T09:38:25;1;1;
63305;PMS5003;50735;52.060;1.248;2023-11-21T09:40:57;1;1;
63305;PMS5003;50735;52.060;1.248;2023-11-21T09:43:29;1;1;
63305;PMS5003;50735;52.060;1.248;2023-11-21T09:46:02;0;0;
63305;PMS5003;50735;52.060;1.248;2023-11-21T09:48:39;1;1;
63305;PMS5003;50735;52.060;1.248;2023-11-21T09:51:11;0;0;
63305;PMS5003;50735;52.060;1.248;2023-11-21T09:53:43;0;0;
63305;PMS5003;50735;52.060;1.248;2023-11-21T09:56:18;2;1;
63305;PMS5003;50735;52.060;1.248;2023-11-21T09:58:51;2;0;
63305;PMS5003;50735;52.060;1.248;2023-11-21T10:01:23;2;2;
63305;PMS5003;50735;52.060;1.248;2023-11-21T10:03:57;2;2;
63305;PMS5003;50735;52.060;1.248;2023-11-21T10:06:29;6;3;
63305;PMS5003;50735;52.060;1.248;2023-11-21T10:09:02;5;5;
63305;PMS5003;50735;52.060;1.248;2023-11-21T10:11:35;5;5;
63305;PMS5003;50735;52.060;1.248;2023-11-21T10:14:07;5;5;
63305;PMS5003;50735;52.060;1.248;2023-11-21T10:16:41;5;4;
63305;PMS5003;50735;52.060;1.248;2023-11-21T10:19:17;3;3;
63305;PMS5003;50735;52.060;1.248;2023-11-21T10:21:48;4;2;
63305;PMS5003;50735;52.060;1.248;2023-11-21T10:24:21;3;3;
63305;PMS5003;50735;52.060;1.248;2023-11-21T10:26:53;3;3;
63305;PMS5003;50735;52.060;1.248;2023-11-21T10:29:25;2;2;
63305;PMS5003;50735;52.060;1.248;2023-11-21T10:32:00;2;2;
63305;PMS5003;50735;52.060;1.248;2023-11-21T10:34:32;1;1;
63305;PMS5003;50735;52.060;1.248;2023-11-21T10:37:10;4;4;
63305;PMS5003;50735;52.060;1.248;2023-11-21T10:39:43;5;4;
63305;PMS5003;50735;52.060;1.248;2023-11-21T10:42:15;5;4;
63305;PMS5003;50735;52.060;1.248;2023-11-21T10:44:49;4;4;
63305;PMS5003;50735;52.060;1.248;2023-11-21T10:47:22;4;4;
63305;PMS5003;50735;52.060;1.248;2023-11-21T10:49:54;4;4;
63305;PMS5003;50735;52.060;1.248;2023-11-21T10:52:26;7;5;
63305;PMS5003;50735;52.060;1.248;2023-11-21T10:54:58;3;3;
63305;PMS5003;50735;52.060;1.248;2023-11-21T10:57:30;4;3;
63305;PMS5003;50735;52.060;1.248;2023-11-21T11:00:03;4;3;
63305;PMS5003;50735;52.060;1.248;2023-11-21T11:02:36;3;3;
63305;PMS5003;50735;52.060;1.248;2023-11-21T11:05:08;3;3;
63305;PMS5003;50735;52.060;1.248;2023-11-21T11:07:40;4;4;
63305;PMS5003;50735;52.060;1.248;2023-11-21T11:10:15;3;3;
63305;PMS5003;50735;52.060;1.248;2023-11-21T11:12:48;3;3;
63305;PMS5003;50735;52.060;1.248;2023-11-21T11:15:19;6;6;
63305;PMS5003;50735;52.060;1.248;2023-11-21T11:17:51;5;4;
63305;PMS5003;50735;52.060;1.248;2023-11-21T11:20:25;7;3;
63305;PMS5003;50735;52.060;1.248;2023-11-21T11:23:11;4;4;
63305;PMS5003;50735;52.060;1.248;2023-11-21T11:26:01;4;4;
63305;PMS5003;50735;52.060;1.248;2023-11-21T11:28:44;2;2;
63305;PMS5003;50735;52.060;1.248;2023-11-21T11:31:26;4;1;
63305;PMS5003;50735;52.060;1.248;2023-11-21T11:34:10;2;0;
63305;PMS5003;50735;52.060;1.248;2023-11-21T11:36:53;2;2;
63305;PMS5003;50735;52.060;1.248;2023-11-21T11:39:30;3;2;
63305;PMS5003;50735;52.060;1.248;2023-11-21T11:42:07;2;0;
63305;PMS5003;50735;52.060;1.248;2023-11-21T11:44:47;4;3;
63305;PMS5003;50735;52.060;1.248;2023-11-21T11:47:21;4;4;
63305;PMS5003;50735;52.060;1.248;2023-11-21T11:49:56;3;3;
63305;PMS5003;50735;52.060;1.248;2023-11-21T11:52:33;4;2;
63305;PMS5003;50735;52.060;1.248;2023-11-21T11:55:08;3;2;
63305;PMS5003;50735;52.060;1.248;2023-11-21T11:57:42;8;3;
63305;PMS5003;50735;52.060;1.248;2023-11-21T12:00:15;1;1;
63305;PMS5003;50735;52.060;1.248;2023-11-21T12:02:49;5;1;
63305;PMS5003;50735;52.060;1.248;2023-11-21T12:05:22;3;2;
63305;PMS5003;50735;52.060;1.248;2023-11-21T12:07:55;2;2;
63305;PMS5003;50735;52.060;1.248;2023-11-21T12:10:28;0;0;
63305;PMS5003;50735;52.060;1.248;2023-11-21T12:13:03;0;0;
63305;PMS5003;50735;52.060;1.248;2023-11-21T12:15:37;2;2;
63305;PMS5003;50735;52.060;1.248;2023-11-21T12:18:09;4;2;
63305;PMS5003;50735;52.060;1.248;2023-11-21T12:20:41;2;2;
63305;PMS5003;50735;52.060;1.248;2023-11-21T12:23:13;3;3;
63305;PMS5003;50735;52.060;1.248;2023-11-21T12:25:45;5;3;
63305;PMS5003;50735;52.060;1.248;2023-11-21T12:28:17;3;3;
63305;PMS5003;50735;52.060;1.248;2023-11-21T12:30:49;4;2;
63305;PMS5003;50735;52.060;1.248;2023-11-21T12:33:20;2;2;
63305;PMS5003;50735;52.060;1.248;2023-11-21T12:35:52;4;4;
63305;PMS5003;50735;52.060;1.248;2023-11-21T12:38:24;5;4;
63305;PMS5003;50735;52.060;1.248;2023-11-21T12:40:56;2;2;
63305;PMS5003;50735;52.060;1.248;2023-11-21T12:43:28;3;3;
63305;PMS5003;50735;52.060;1.248;2023-11-21T12:46:05;1;1;
63305;PMS5003;50735;52.060;1.248;2023-11-21T12:48:37;1;0;
63305;PMS5003;50735;52.060;1.248;2023-11-21T12:51:09;3;2;
63305;PMS5003;50735;52.060;1.248;2023-11-21T12:53:42;4;3;
63305;PMS5003;50735;52.060;1.248;2023-11-21T12:56:15;5;3;
63305;PMS5003;50735;52.060;1.248;2023-11-21T12:58:46;3;1;
63305;PMS5003;50735;52.060;1.248;2023-11-21T13:01:18;3;2;
63305;PMS5003;50735;52.060;1.248;2023-11-21T13:03:50;1;1;
63305;PMS5003;50735;52.060;1.248;2023-11-21T13:06:22;3;2;
63305;PMS5003;50735;52.060;1.248;2023-11-21T13:08:54;3;3;
63305;PMS5003;50735;52.060;1.248;2023-11-21T13:11:26;1;1;
63305;PMS5003;50735;52.060;1.248;2023-11-21T13:13:59;3;2;
63305;PMS5003;50735;52.060;1.248;2023-11-21T13:16:30;4;1;
63305;PMS5003;50735;52.060;1.248;2023-11-21T13:19:02;1;0;
63305;PMS5003;50735;52.060;1.248;2023-11-21T13:21:34;1;1;
63305;PMS5003;50735;52.060;1.248;2023-11-21T13:24:06;3;1;
63305;PMS5003;50735;52.060;1.248;2023-11-21T13:26:38;15;12;
63305;PMS5003;50735;52.060;1.248;2023-11-21T13:29:10;2;0;
63305;PMS5003;50735;52.060;1.248;2023-11-21T13:31:41;2;2;
63305;PMS5003;50735;52.060;1.248;2023-11-21T13:34:13;3;2;
63305;PMS5003;50735;52.060;1.248;2023-11-21T13:36:45;1;1;
63305;PMS5003;50735;52.060;1.248;2023-11-21T13:39:17;2;2;
63305;PMS5003;50735;52.060;1.248;2023-11-21T13:41:48;0;0;
63305;PMS5003;50735;52.060;1.248;2023-11-21T13:44:20;6;4;
63305;PMS5003;50735;52.060;1.248;2023-11-21T13:46:53;2;1;
63305;PMS5003;50735;52.060;1.248;2023-11-21T13:49:24;2;2;
63305;PMS5003;50735;52.060;1.248;2023-11-21T13:51:56;1;1;
63305;PMS5003;50735;52.060;1.248;2023-11-21T13:54:28;2;2;
63305;PMS5003;50735;52.060;1.248;2023-11-21T13:57:00;1;1;
63305;PMS5003;50735;52.060;1.248;2023-11-21T13:59:32;5;0;
63305;PMS5003;50735;52.060;1.248;2023-11-21T14:02:03;9;2;
63305;PMS5003;50735;52.060;1.248;2023-11-21T14:04:36;2;2;
63305;PMS5003;50735;52.060;1.248;2023-11-21T14:07:08;4;3;
63305;PMS5003;50735;52.060;1.248;2023-11-21T14:09:39;2;1;
63305;PMS5003;50735;52.060;1.248;2023-11-21T14:12:11;1;1;
63305;PMS5003;50735;52.060;1.248;2023-11-21T14:14:43;3;1;
63305;PMS5003;50735;52.060;1.248;2023-11-21T14:17:15;1;1;
63305;PMS5003;50735;52.060;1.248;2023-11-21T14:19:47;4;1;
63305;PMS5003;50735;52.060;1.248;2023-11-21T14:22:20;3;1;
63305;PMS5003;50735;52.060;1.248;2023-11-21T14:24:52;2;2;
63305;PMS5003;50735;52.060;1.248;2023-11-21T14:27:24;0;0;
63305;PMS5003;50735;52.060;1.248;2023-11-21T14:29:56;2;2;
63305;PMS5003;50735;52.060;1.248;2023-11-21T14:32:28;4;1;
63305;PMS5003;50735;52.060;1.248;2023-11-21T14:34:59;4;2;
63305;PMS5003;50735;52.060;1.248;2023-11-21T14:37:31;0;0;
63305;PMS5003;50735;52.060;1.248;2023-11-21T14:40:03;14;2;
63305;PMS5003;50735;52.060;1.248;2023-11-21T14:42:35;4;2;
63305;PMS5003;50735;52.060;1.248;2023-11-21T14:45:08;4;4;
63305;PMS5003;50735;52.060;1.248;2023-11-21T14:47:41;13;4;
63305;PMS5003;50735;52.060;1.248;2023-11-21T14:50:13;3;1;
63305;PMS5003;50735;52.060;1.248;2023-11-21T14:52:45;6;3;
63305;PMS5003;50735;52.060;1.248;2023-11-21T14:55:17;6;3;
63305;PMS5003;50735;52.060;1.248;2023-11-21T14:57:49;4;3;
63305;PMS5003;50735;52.060;1.248;2023-11-21T15:00:20;4;4;
63305;PMS5003;50735;52.060;1.248;2023-11-21T15:02:52;4;3;
63305;PMS5003;50735;52.060;1.248;2023-11-21T15:05:24;3;2;
63305;PMS5003;50735;52.060;1.248;2023-11-21T15:07:56;6;4;
63305;PMS5003;50735;52.060;1.248;2023-11-21T15:10:28;3;3;
63305;PMS5003;50735;52.060;1.248;2023-11-21T15:13:00;3;3;
63305;PMS5003;50735;52.060;1.248;2023-11-21T15:15:31;15;13;
63305;PMS5003;50735;52.060;1.248;2023-11-21T15:18:03;5;5;
63305;PMS5003;50735;52.060;1.248;2023-11-21T15:20:35;3;3;
63305;PMS5003;50735;52.060;1.248;2023-11-21T15:23:07;8;3;
63305;PMS5003;50735;52.060;1.248;2023-11-21T15:25:39;5;2;
63305;PMS5003;50735;52.060;1.248;2023-11-21T15:28:11;0;0;
63305;PMS5003;50735;52.060;1.248;2023-11-21T15:30:43;3;1;
63305;PMS5003;50735;52.060;1.248;2023-11-21T15:33:15;2;2;
63305;PMS5003;50735;52.060;1.248;2023-11-21T15:35:47;2;2;
63305;PMS5003;50735;52.060;1.248;2023-11-21T15:38:18;4;2;
63305;PMS5003;50735;52.060;1.248;2023-11-21T15:40:50;2;2;
63305;PMS5003;50735;52.060;1.248;2023-11-21T15:43:22;4;2;
63305;PMS5003;50735;52.060;1.248;2023-11-21T15:45:54;4;2;
63305;PMS5003;50735;52.060;1.248;2023-11-21T15:48:26;5;5;
63305;PMS5003;50735;52.060;1.248;2023-11-21T15:50:58;9;3;
63305;PMS5003;50735;52.060;1.248;2023-11-21T15:53:29;6;3;
63305;PMS5003;50735;52.060;1.248;2023-11-21T15:56:03;4;2;
63305;PMS5003;50735;52.060;1.248;2023-11-21T15:58:35;3;2;
63305;PMS5003;50735;52.060;1.248;2023-11-21T16:01:07;2;2;
63305;PMS5003;50735;52.060;1.248;2023-11-21T16:03:40;5;3;
63305;PMS5003;50735;52.060;1.248;2023-11-21T16:06:12;6;3;
63305;PMS5003;50735;52.060;1.248;2023-11-21T16:08:44;7;2;
63305;PMS5003;50735;52.060;1.248;2023-11-21T16:11:16;4;2;
63305;PMS5003;50735;52.060;1.248;2023-11-21T16:13:48;2;2;
63305;PMS5003;50735;52.060;1.248;2023-11-21T16:16:20;3;2;
63305;PMS5003;50735;52.060;1.248;2023-11-21T16:18:53;7;3;
63305;PMS5003;50735;52.060;1.248;2023-11-21T16:21:25;3;3;
63305;PMS5003;50735;52.060;1.248;2023-11-21T16:23:57;5;3;
63305;PMS5003;50735;52.060;1.248;2023-11-21T16:26:29;4;1;
63305;PMS5003;50735;52.060;1.248;2023-11-21T16:29:01;2;2;
63305;PMS5003;50735;52.060;1.248;2023-11-21T16:31:33;11;2;
63305;PMS5003;50735;52.060;1.248;2023-11-21T16:34:10;5;3;
63305;PMS5003;50735;52.060;1.248;2023-11-21T16:36:44;4;3;
63305;PMS5003;50735;52.060;1.248;2023-11-21T16:39:18;5;3;
63305;PMS5003;50735;52.060;1.248;2023-11-21T16:41:50;6;2;
63305;PMS5003;50735;52.060;1.248;2023-11-21T16:44:22;1;1;
63305;PMS5003;50735;52.060;1.248;2023-11-21T16:46:54;5;4;
63305;PMS5003;50735;52.060;1.248;2023-11-21T16:49:26;2;2;
63305;PMS5003;50735;52.060;1.248;2023-11-21T16:51:58;7;2;
63305;PMS5003;50735;52.060;1.248;2023-11-21T16:54:30;3;3;
63305;PMS5003;50735;52.060;1.248;2023-11-21T16:57:02;8;4;
63305;PMS5003;50735;52.060;1.248;2023-11-21T16:59:34;3;3;
63305;PMS5003;50735;52.060;1.248;2023-11-21T17:02:06;5;5;
63305;PMS5003;50735;52.060;1.248;2023-11-21T17:04:38;16;4;
63305;PMS5003;50735;52.060;1.248;2023-11-21T17:07:10;4;2;
63305;PMS5003;50735;52.060;1.248;2023-11-21T17:09:42;4;2;
63305;PMS5003;50735;52.060;1.248;2023-11-21T17:12:14;8;4;
63305;PMS5003;50735;52.060;1.248;2023-11-21T17:14:45;3;3;
63305;PMS5003;50735;52.060;1.248;2023-11-21T17:17:18;5;3;
63305;PMS5003;50735;52.060;1.248;2023-11-21T17:19:49;2;2;
63305;PMS5003;50735;52.060;1.248;2023-11-21T17:22:21;7;4;
63305;PMS5003;50735;52.060;1.248;2023-11-21T17:24:53;3;3;